Hestrud (Nord, France) - 208 m
Donnes mto: Actuelle mardi, 22/10/2019 10:14
Date Horaire Temp Out Temp. 4 Temp. E. min Temp. E. max Temp. Sol 1 Hum Out Hum. Sol 1 Press Rain Wind Dir Dir Solar Ev.Tr. UV Hi Solar Rad Dew Point Windchill Wind (Gust)
22/10/2019 10:14 10,4 C 0,0 C 10,3 C 10,4 C 10,6 C 98 % 86 cb 1024,4 hPa 0,0 mm 3,2 km/h (1 Bft) O-SO 247 0 min 0,025 mm 0,0 UV-I 70 W/m 10,1 C 10,4 C 4,8 km/h (1 Bft)
22/10/2019 09:14 9,8 C 0,0 C 9,8 C 9,8 C 10,0 C 98 % 86 cb 1024,2 hPa 0,0 mm 1,6 km/h (1 Bft) S-SO 202 0 min 0,000 mm 0,0 UV-I 18 W/m 9,5 C 9,8 C 1,6 km/h (1 Bft)
22/10/2019 08:14 9,7 C 0,0 C 9,7 C 9,7 C 10,0 C 98 % 86 cb 1023,4 hPa 0,2 mm 4,8 km/h (1 Bft) SO 225 0 min 0,000 mm 0,0 UV-I 0 W/m 9,4 C 9,7 C 8,0 km/h (2 Bft)
22/10/2019 07:14 9,8 C 0,0 C 9,8 C 9,8 C 10,0 C 98 % 87 cb 1022,9 hPa 0,0 mm 8,0 km/h (2 Bft) SO 225 0 min 0,000 mm 0,0 UV-I 0 W/m 9,5 C 8,6 C 11,3 km/h (2 Bft)
22/10/2019 06:14 9,9 C 0,0 C 9,9 C 10,0 C 10,0 C 97 % 87 cb 1022,1 hPa 0,0 mm 8,0 km/h (2 Bft) S-SO 202 0 min 0,000 mm 0,0 UV-I 0 W/m 9,4 C 8,7 C 12,9 km/h (3 Bft)
22/10/2019 05:14 10,2 C 0,0 C 10,2 C 10,2 C 10,0 C 97 % 87 cb 1022,4 hPa 0,0 mm 4,8 km/h (1 Bft) SO 225 0 min 0,000 mm 0,0 UV-I 0 W/m 9,7 C 10,2 C 8,0 km/h (2 Bft)
22/10/2019 04:14 10,3 C 0,0 C 10,3 C 10,3 C 10,6 C 96 % 88 cb 1022,1 hPa 0,0 mm 9,7 km/h (2 Bft) SO 225 0 min 0,000 mm 0,0 UV-I 0 W/m 9,7 C 8,1 C 11,3 km/h (2 Bft)
22/10/2019 03:13 10,4 C 0,0 C 10,4 C 10,4 C 10,6 C 96 % 88 cb 1022,1 hPa 0,0 mm 11,3 km/h (2 Bft) SO 225 0 min 0,000 mm 0,0 UV-I 0 W/m 9,8 C 7,3 C 12,9 km/h (3 Bft)
22/10/2019 02:13 10,6 C 0,0 C 10,6 C 10,6 C 10,6 C 96 % 87 cb 1021,8 hPa 0,0 mm 11,3 km/h (2 Bft) O-SO 247 0 min 0,000 mm 0,0 UV-I 0 W/m 10,0 C 7,6 C 17,7 km/h (3 Bft)
22/10/2019 01:13 10,7 C 0,0 C 10,7 C 10,7 C 10,6 C 95 % 86 cb 1021,2 hPa 0,0 mm 11,3 km/h (2 Bft) S-SO 202 0 min 0,000 mm 0,0 UV-I 0 W/m 9,9 C 7,7 C 20,9 km/h (4 Bft)
22/10/2019 00:13 11,0 C 0,0 C 10,9 C 11,0 C 10,6 C 94 % 86 cb 1021,2 hPa 0,0 mm 9,7 km/h (2 Bft) O-SO 247 0 min 0,000 mm 0,0 UV-I 0 W/m 10,1 C 8,9 C 16,1 km/h (3 Bft)
21/10/2019 23:13 11,1 C 0,0 C 11,1 C 11,1 C 10,6 C 95 % 86 cb 1020,7 hPa 0,0 mm 12,9 km/h (3 Bft) SO 225 0 min 0,000 mm 0,0 UV-I 0 W/m 10,3 C 7,4 C 16,1 km/h (3 Bft)
21/10/2019 22:13 11,1 C 0,0 C 11,1 C 11,1 C 10,6 C 95 % 85 cb 1020,3 hPa 0,0 mm 12,9 km/h (3 Bft) SO 225 0 min 0,000 mm 0,0 UV-I 0 W/m 10,3 C 7,4 C 19,3 km/h (3 Bft)
21/10/2019 21:13 10,9 C 0,0 C 10,9 C 10,9 C 10,6 C 95 % 84 cb 1019,9 hPa 0,0 mm 9,7 km/h (2 Bft) SO 225 0 min 0,000 mm 0,0 UV-I 0 W/m 10,1 C 8,8 C 12,9 km/h (3 Bft)
21/10/2019 20:13 10,8 C 0,0 C 10,8 C 10,8 C 10,6 C 95 % 84 cb 1019,5 hPa 0,0 mm 9,7 km/h (2 Bft) S 180 0 min 0,000 mm 0,0 UV-I 0 W/m 10,0 C 8,6 C 14,5 km/h (3 Bft)
21/10/2019 19:13 10,8 C 0,0 C 10,8 C 10,8 C 10,6 C 95 % 84 cb 1019,1 hPa 0,0 mm 6,4 km/h (2 Bft) S-SO 202 0 min 0,000 mm 0,0 UV-I 0 W/m 10,0 C 10,8 C 9,7 km/h (2 Bft)
21/10/2019 18:13 11,1 C 0,0 C 11,0 C 11,1 C 10,6 C 93 % 83 cb 1018,1 hPa 0,0 mm 9,7 km/h (2 Bft) S-SO 202 0 min 0,025 mm 0,0 UV-I 5 W/m 10,0 C 9,0 C 16,1 km/h (3 Bft)
21/10/2019 17:13 11,2 C 0,0 C 11,2 C 11,2 C 10,6 C 92 % 82 cb 1017,7 hPa 0,0 mm 14,5 km/h (3 Bft) SO 225 0 min 0,025 mm 0,0 UV-I 19 W/m 9,9 C 6,8 C 17,7 km/h (3 Bft)
21/10/2019 16:13 11,5 C 0,0 C 11,5 C 11,5 C 10,6 C 91 % 82 cb 1017,3 hPa 0,0 mm 8,0 km/h (2 Bft) S-SO 202 0 min 0,051 mm 0,0 UV-I 28 W/m 10,1 C 10,4 C 12,9 km/h (3 Bft)
21/10/2019 15:13 11,2 C 0,0 C 11,2 C 11,2 C 10,6 C 92 % 81 cb 1016,7 hPa 0,0 mm 8,0 km/h (2 Bft) SO 225 0 min 0,025 mm 0,0 UV-I 58 W/m 9,9 C 10,1 C 14,5 km/h (3 Bft)
21/10/2019 14:13 11,2 C 0,0 C 11,2 C 11,2 C 10,6 C 92 % 81 cb 1016,5 hPa 0,2 mm 8,0 km/h (2 Bft) S-SO 202 0 min 0,051 mm 0,0 UV-I 51 W/m 9,9 C 10,1 C 14,5 km/h (3 Bft)
21/10/2019 13:13 10,7 C 0,0 C 10,7 C 10,7 C 10,6 C 94 % 81 cb 1016,3 hPa 0,0 mm 9,7 km/h (2 Bft) SO 225 5 min 0,051 mm 0,5 UV-I 91 W/m 9,8 C 8,5 C 12,9 km/h (3 Bft)
21/10/2019 12:13 10,3 C 0,0 C 10,3 C 10,3 C 10,6 C 95 % 81 cb 1015,5 hPa 0,0 mm 11,3 km/h (2 Bft) S-SE 157 0 min 0,025 mm 0,0 UV-I 39 W/m 9,5 C 7,2 C 19,3 km/h (3 Bft)
21/10/2019 11:13 10,6 C 0,0 C 10,6 C 10,6 C 10,6 C 94 % 81 cb 1014,4 hPa 0,0 mm 14,5 km/h (3 Bft) O-SO 247 0 min 0,025 mm 0,5 UV-I 104 W/m 9,7 C 6,1 C 17,7 km/h (3 Bft)
21/10/2019 11:00 10,5 C 0,0 C 10,5 C 10,5 C 10,6 C 94 % 81 cb 1014,1 hPa 0,0 mm 9,7 km/h (2 Bft) S 180 0 min 0,025 mm 0,0 UV-I 93 W/m 9,6 C 8,3 C 17,7 km/h (3 Bft)
_ Min-Heure 07:59 11:00 07:59 08:06 11:39 15:57 11:00 11:00 - 08:43 - - - - - - 08:00 22:42 08:43
Minimum _ 9,7 C 0,0 C 9,7 C 9,7 C 10,0 C 90 % 81 cb 1014,1 hPa - 0,0 km/h (0 Bft) - - - - - - 9,4 C 4,0 C 1,6 km/h (1 Bft)
_ Max-Heure 16:02 11:00 15:57 16:02 15:30 06:15 02:59 09:57 13:47 22:42 - - 12:26 13:00 12:43 12:43 21:31 16:02 14:42
Maximum _ 11,6 C 0,0 C 11,5 C 11,6 C 11,1 C 98 % 88 cb 1024,8 hPa 0,2 mm 22,5 km/h
O-SO (4 Bft)
- - 1 min 0,051 mm 0,9 UV-I 160 W/m 10,3 C 11,6 C 33,8 km/h
SO (5 Bft)
Moyenne _ 10,6 C 0,0 C 10,6 C 10,6 C 10,5 C 95 % 84 cb 1019,5 hPa #0,4 mm 9,2 km/h (2 Bft) SO - #0 min. #0,025 mm 0,0 UV-I 6 W/m 9,9 C 8,7 C 14,1 km/h (3 Bft)